sensor_id;sensor_type;location;lat;lon;timestamp;P1;durP1;ratioP1;P2;durP2;ratioP2
22851;SDS011;11592;45.460;9.240;2022-12-07T00:03:43;41.47;;;21.25;;
22851;SDS011;11592;45.460;9.240;2022-12-07T00:06:13;41.00;;;20.98;;
22851;SDS011;11592;45.460;9.240;2022-12-07T00:08:41;38.53;;;21.20;;
22851;SDS011;11592;45.460;9.240;2022-12-07T00:11:08;41.33;;;22.20;;
22851;SDS011;11592;45.460;9.240;2022-12-07T00:13:36;43.10;;;21.52;;
22851;SDS011;11592;45.460;9.240;2022-12-07T00:16:08;43.75;;;21.98;;
22851;SDS011;11592;45.460;9.240;2022-12-07T00:18:36;43.88;;;22.00;;
22851;SDS011;11592;45.460;9.240;2022-12-07T00:21:04;44.75;;;22.30;;
22851;SDS011;11592;45.460;9.240;2022-12-07T00:23:33;41.88;;;22.08;;
22851;SDS011;11592;45.460;9.240;2022-12-07T00:26:07;38.55;;;21.77;;
22851;SDS011;11592;45.460;9.240;2022-12-07T00:28:46;42.85;;;22.08;;
22851;SDS011;11592;45.460;9.240;2022-12-07T00:31:14;48.85;;;23.17;;
22851;SDS011;11592;45.460;9.240;2022-12-07T00:33:42;43.95;;;22.65;;
22851;SDS011;11592;45.460;9.240;2022-12-07T00:36:11;43.63;;;22.40;;
22851;SDS011;11592;45.460;9.240;2022-12-07T00:38:39;44.72;;;23.23;;
22851;SDS011;11592;45.460;9.240;2022-12-07T00:41:09;43.22;;;22.95;;
22851;SDS011;11592;45.460;9.240;2022-12-07T00:43:41;46.53;;;23.02;;
22851;SDS011;11592;45.460;9.240;2022-12-07T00:46:08;43.20;;;23.33;;
22851;SDS011;11592;45.460;9.240;2022-12-07T00:48:36;43.10;;;22.23;;
22851;SDS011;11592;45.460;9.240;2022-12-07T00:51:03;42.42;;;23.05;;
22851;SDS011;11592;45.460;9.240;2022-12-07T00:53:31;43.33;;;22.80;;
22851;SDS011;11592;45.460;9.240;2022-12-07T00:56:20;49.40;;;23.98;;
22851;SDS011;11592;45.460;9.240;2022-12-07T00:58:55;45.40;;;22.92;;
22851;SDS011;11592;45.460;9.240;2022-12-07T01:01:25;44.80;;;22.95;;
22851;SDS011;11592;45.460;9.240;2022-12-07T01:03:54;37.88;;;22.25;;
22851;SDS011;11592;45.460;9.240;2022-12-07T01:06:22;43.35;;;22.95;;
22851;SDS011;11592;45.460;9.240;2022-12-07T01:08:50;47.80;;;22.65;;
22851;SDS011;11592;45.460;9.240;2022-12-07T01:11:18;44.55;;;22.60;;
22851;SDS011;11592;45.460;9.240;2022-12-07T01:13:49;46.50;;;23.45;;
22851;SDS011;11592;45.460;9.240;2022-12-07T01:16:17;46.72;;;24.25;;
22851;SDS011;11592;45.460;9.240;2022-12-07T01:18:45;44.80;;;23.05;;
22851;SDS011;11592;45.460;9.240;2022-12-07T01:21:16;45.00;;;22.95;;
22851;SDS011;11592;45.460;9.240;2022-12-07T01:23:44;44.00;;;21.20;;
22851;SDS011;11592;45.460;9.240;2022-12-07T01:26:13;44.47;;;22.83;;
22851;SDS011;11592;45.460;9.240;2022-12-07T01:28:42;41.97;;;21.50;;
22851;SDS011;11592;45.460;9.240;2022-12-07T01:31:10;42.92;;;22.15;;
22851;SDS011;11592;45.460;9.240;2022-12-07T01:33:42;43.13;;;23.35;;
22851;SDS011;11592;45.460;9.240;2022-12-07T01:38:40;47.83;;;22.70;;
22851;SDS011;11592;45.460;9.240;2022-12-07T01:41:07;45.38;;;21.60;;
22851;SDS011;11592;45.460;9.240;2022-12-07T01:43:34;47.03;;;22.95;;
22851;SDS011;11592;45.460;9.240;2022-12-07T01:46:02;45.05;;;23.58;;
22851;SDS011;11592;45.460;9.240;2022-12-07T01:48:32;41.25;;;23.00;;
22851;SDS011;11592;45.460;9.240;2022-12-07T01:51:06;46.10;;;22.45;;
22851;SDS011;11592;45.460;9.240;2022-12-07T01:53:38;40.15;;;21.35;;
22851;SDS011;11592;45.460;9.240;2022-12-07T01:56:10;46.80;;;21.65;;
22851;SDS011;11592;45.460;9.240;2022-12-07T01:58:43;44.75;;;23.50;;
22851;SDS011;11592;45.460;9.240;2022-12-07T02:01:11;43.88;;;22.20;;
22851;SDS011;11592;45.460;9.240;2022-12-07T02:03:39;42.83;;;22.02;;
22851;SDS011;11592;45.460;9.240;2022-12-07T02:06:08;41.75;;;21.70;;
22851;SDS011;11592;45.460;9.240;2022-12-07T02:08:37;41.75;;;21.58;;
22851;SDS011;11592;45.460;9.240;2022-12-07T02:11:04;48.38;;;22.35;;
22851;SDS011;11592;45.460;9.240;2022-12-07T02:13:34;39.08;;;21.67;;
22851;SDS011;11592;45.460;9.240;2022-12-07T02:21:11;50.35;;;24.30;;
22851;SDS011;11592;45.460;9.240;2022-12-07T02:31:46;46.45;;;22.95;;
22851;SDS011;11592;45.460;9.240;2022-12-07T02:37:00;44.38;;;22.63;;
22851;SDS011;11592;45.460;9.240;2022-12-07T02:39:37;43.13;;;24.27;;
22851;SDS011;11592;45.460;9.240;2022-12-07T02:42:15;45.22;;;22.02;;
22851;SDS011;11592;45.460;9.240;2022-12-07T02:44:48;44.38;;;22.85;;
22851;SDS011;11592;45.460;9.240;2022-12-07T02:47:15;45.67;;;22.35;;
22851;SDS011;11592;45.460;9.240;2022-12-07T02:49:45;45.03;;;23.33;;
22851;SDS011;11592;45.460;9.240;2022-12-07T02:52:12;45.88;;;24.05;;
22851;SDS011;11592;45.460;9.240;2022-12-07T02:54:39;47.78;;;23.45;;
22851;SDS011;11592;45.460;9.240;2022-12-07T03:00:18;45.97;;;24.13;;
22851;SDS011;11592;45.460;9.240;2022-12-07T03:03:00;48.00;;;23.98;;
22851;SDS011;11592;45.460;9.240;2022-12-07T03:08:47;47.78;;;23.90;;
22851;SDS011;11592;45.460;9.240;2022-12-07T03:11:33;47.97;;;24.65;;
22851;SDS011;11592;45.460;9.240;2022-12-07T03:14:29;44.67;;;23.27;;
22851;SDS011;11592;45.460;9.240;2022-12-07T03:17:07;42.88;;;23.38;;
22851;SDS011;11592;45.460;9.240;2022-12-07T03:19:43;46.13;;;23.73;;
22851;SDS011;11592;45.460;9.240;2022-12-07T03:22:12;45.38;;;24.38;;
22851;SDS011;11592;45.460;9.240;2022-12-07T03:24:42;47.88;;;23.88;;
22851;SDS011;11592;45.460;9.240;2022-12-07T03:27:22;44.60;;;24.17;;
22851;SDS011;11592;45.460;9.240;2022-12-07T03:30:15;42.60;;;23.70;;
22851;SDS011;11592;45.460;9.240;2022-12-07T03:32:48;44.50;;;23.08;;
22851;SDS011;11592;45.460;9.240;2022-12-07T03:35:25;49.80;;;24.42;;
22851;SDS011;11592;45.460;9.240;2022-12-07T03:38:00;43.55;;;23.23;;
22851;SDS011;11592;45.460;9.240;2022-12-07T03:40:43;48.60;;;24.17;;
22851;SDS011;11592;45.460;9.240;2022-12-07T03:43:16;44.53;;;24.67;;
22851;SDS011;11592;45.460;9.240;2022-12-07T03:45:48;43.67;;;23.95;;
22851;SDS011;11592;45.460;9.240;2022-12-07T03:51:43;47.50;;;25.20;;
22851;SDS011;11592;45.460;9.240;2022-12-07T03:54:19;43.13;;;23.42;;
22851;SDS011;11592;45.460;9.240;2022-12-07T03:56:48;46.70;;;22.65;;
22851;SDS011;11592;45.460;9.240;2022-12-07T03:59:16;40.17;;;23.50;;
22851;SDS011;11592;45.460;9.240;2022-12-07T04:01:44;46.17;;;24.15;;
22851;SDS011;11592;45.460;9.240;2022-12-07T04:04:17;46.08;;;23.27;;
22851;SDS011;11592;45.460;9.240;2022-12-07T04:06:44;46.08;;;23.48;;
22851;SDS011;11592;45.460;9.240;2022-12-07T04:09:11;47.70;;;24.17;;
22851;SDS011;11592;45.460;9.240;2022-12-07T04:11:37;42.88;;;22.63;;
22851;SDS011;11592;45.460;9.240;2022-12-07T04:14:04;44.10;;;24.10;;
22851;SDS011;11592;45.460;9.240;2022-12-07T04:16:47;49.67;;;24.42;;
22851;SDS011;11592;45.460;9.240;2022-12-07T04:19:16;45.03;;;24.45;;
22851;SDS011;11592;45.460;9.240;2022-12-07T04:21:44;46.95;;;24.20;;
22851;SDS011;11592;45.460;9.240;2022-12-07T04:24:12;43.25;;;23.92;;
22851;SDS011;11592;45.460;9.240;2022-12-07T04:26:40;51.03;;;24.10;;
22851;SDS011;11592;45.460;9.240;2022-12-07T04:29:08;46.92;;;23.42;;
22851;SDS011;11592;45.460;9.240;2022-12-07T04:31:35;43.25;;;25.33;;
22851;SDS011;11592;45.460;9.240;2022-12-07T04:34:03;42.40;;;22.90;;
22851;SDS011;11592;45.460;9.240;2022-12-07T04:36:31;50.80;;;23.90;;
22851;SDS011;11592;45.460;9.240;2022-12-07T04:38:58;43.05;;;23.30;;
22851;SDS011;11592;45.460;9.240;2022-12-07T04:41:25;53.55;;;23.77;;
22851;SDS011;11592;45.460;9.240;2022-12-07T04:43:56;47.55;;;24.00;;
22851;SDS011;11592;45.460;9.240;2022-12-07T04:46:26;48.72;;;24.35;;
22851;SDS011;11592;45.460;9.240;2022-12-07T04:48:53;39.45;;;22.55;;
22851;SDS011;11592;45.460;9.240;2022-12-07T04:51:21;37.22;;;22.17;;
22851;SDS011;11592;45.460;9.240;2022-12-07T04:53:49;30.88;;;19.40;;
22851;SDS011;11592;45.460;9.240;2022-12-07T04:56:17;29.20;;;18.02;;
22851;SDS011;11592;45.460;9.240;2022-12-07T04:58:45;33.60;;;19.02;;
22851;SDS011;11592;45.460;9.240;2022-12-07T05:01:14;31.83;;;19.27;;
22851;SDS011;11592;45.460;9.240;2022-12-07T05:03:41;29.05;;;16.45;;
22851;SDS011;11592;45.460;9.240;2022-12-07T05:06:09;31.02;;;17.40;;
22851;SDS011;11592;45.460;9.240;2022-12-07T05:08:39;25.25;;;14.82;;
22851;SDS011;11592;45.460;9.240;2022-12-07T05:11:06;27.25;;;15.60;;
22851;SDS011;11592;45.460;9.240;2022-12-07T05:13:34;25.45;;;14.80;;
22851;SDS011;11592;45.460;9.240;2022-12-07T05:16:02;28.35;;;15.50;;
22851;SDS011;11592;45.460;9.240;2022-12-07T05:18:29;23.52;;;14.35;;
22851;SDS011;11592;45.460;9.240;2022-12-07T05:20:55;27.35;;;15.27;;
22851;SDS011;11592;45.460;9.240;2022-12-07T05:23:22;25.05;;;14.85;;
22851;SDS011;11592;45.460;9.240;2022-12-07T05:25:49;24.13;;;15.15;;
22851;SDS011;11592;45.460;9.240;2022-12-07T05:28:16;20.95;;;14.27;;
22851;SDS011;11592;45.460;9.240;2022-12-07T05:30:43;21.05;;;15.02;;
22851;SDS011;11592;45.460;9.240;2022-12-07T05:33:10;26.73;;;14.57;;
22851;SDS011;11592;45.460;9.240;2022-12-07T05:35:36;23.05;;;14.38;;
22851;SDS011;11592;45.460;9.240;2022-12-07T05:38:04;25.05;;;14.43;;
22851;SDS011;11592;45.460;9.240;2022-12-07T05:40:31;25.85;;;15.20;;
22851;SDS011;11592;45.460;9.240;2022-12-07T05:42:57;27.05;;;14.70;;
22851;SDS011;11592;45.460;9.240;2022-12-07T05:45:30;30.15;;;15.02;;
22851;SDS011;11592;45.460;9.240;2022-12-07T05:47:57;25.63;;;15.43;;
22851;SDS011;11592;45.460;9.240;2022-12-07T05:50:24;25.10;;;15.60;;
22851;SDS011;11592;45.460;9.240;2022-12-07T05:52:51;27.00;;;16.58;;
22851;SDS011;11592;45.460;9.240;2022-12-07T05:55:18;25.70;;;14.30;;
22851;SDS011;11592;45.460;9.240;2022-12-07T05:57:44;25.17;;;15.50;;
22851;SDS011;11592;45.460;9.240;2022-12-07T06:00:32;28.02;;;15.32;;
22851;SDS011;11592;45.460;9.240;2022-12-07T06:02:58;26.88;;;15.93;;
22851;SDS011;11592;45.460;9.240;2022-12-07T06:05:25;24.15;;;14.45;;
22851;SDS011;11592;45.460;9.240;2022-12-07T06:07:52;20.80;;;14.18;;
22851;SDS011;11592;45.460;9.240;2022-12-07T06:10:19;24.33;;;14.52;;
22851;SDS011;11592;45.460;9.240;2022-12-07T06:12:46;21.33;;;13.75;;
22851;SDS011;11592;45.460;9.240;2022-12-07T06:15:13;22.55;;;14.15;;
22851;SDS011;11592;45.460;9.240;2022-12-07T06:17:40;25.00;;;15.10;;
22851;SDS011;11592;45.460;9.240;2022-12-07T06:20:07;24.23;;;13.52;;
22851;SDS011;11592;45.460;9.240;2022-12-07T06:22:34;23.20;;;13.95;;
22851;SDS011;11592;45.460;9.240;2022-12-07T06:25:01;27.02;;;15.50;;
22851;SDS011;11592;45.460;9.240;2022-12-07T06:27:34;23.85;;;14.05;;
22851;SDS011;11592;45.460;9.240;2022-12-07T06:30:02;24.13;;;13.98;;
22851;SDS011;11592;45.460;9.240;2022-12-07T06:32:33;24.90;;;14.38;;
22851;SDS011;11592;45.460;9.240;2022-12-07T06:35:00;22.02;;;13.20;;
22851;SDS011;11592;45.460;9.240;2022-12-07T06:37:27;24.60;;;14.40;;
22851;SDS011;11592;45.460;9.240;2022-12-07T06:39:54;24.85;;;15.95;;
22851;SDS011;11592;45.460;9.240;2022-12-07T06:42:20;33.33;;;15.23;;
22851;SDS011;11592;45.460;9.240;2022-12-07T06:44:47;27.25;;;14.93;;
22851;SDS011;11592;45.460;9.240;2022-12-07T06:47:14;23.90;;;14.63;;
22851;SDS011;11592;45.460;9.240;2022-12-07T06:50:01;24.52;;;14.55;;
22851;SDS011;11592;45.460;9.240;2022-12-07T06:52:28;33.95;;;13.60;;
22851;SDS011;11592;45.460;9.240;2022-12-07T06:54:56;25.50;;;13.98;;
22851;SDS011;11592;45.460;9.240;2022-12-07T06:57:22;25.73;;;14.63;;
22851;SDS011;11592;45.460;9.240;2022-12-07T06:59:49;25.77;;;15.25;;
22851;SDS011;11592;45.460;9.240;2022-12-07T07:02:16;25.10;;;14.85;;
22851;SDS011;11592;45.460;9.240;2022-12-07T07:04:44;28.25;;;15.70;;
22851;SDS011;11592;45.460;9.240;2022-12-07T07:07:11;26.00;;;14.48;;
22851;SDS011;11592;45.460;9.240;2022-12-07T07:09:37;28.92;;;15.88;;
22851;SDS011;11592;45.460;9.240;2022-12-07T07:12:04;56.45;;;16.48;;
22851;SDS011;11592;45.460;9.240;2022-12-07T07:14:31;36.08;;;15.05;;
22851;SDS011;11592;45.460;9.240;2022-12-07T07:16:58;29.98;;;15.43;;
22851;SDS011;11592;45.460;9.240;2022-12-07T07:19:25;34.70;;;16.38;;
22851;SDS011;11592;45.460;9.240;2022-12-07T07:21:52;32.72;;;16.33;;
22851;SDS011;11592;45.460;9.240;2022-12-07T07:24:19;32.70;;;16.35;;
22851;SDS011;11592;45.460;9.240;2022-12-07T07:26:46;25.10;;;15.00;;
22851;SDS011;11592;45.460;9.240;2022-12-07T07:29:13;26.88;;;14.88;;
22851;SDS011;11592;45.460;9.240;2022-12-07T07:31:40;30.08;;;16.00;;
22851;SDS011;11592;45.460;9.240;2022-12-07T07:34:06;28.75;;;15.38;;
22851;SDS011;11592;45.460;9.240;2022-12-07T07:36:33;27.95;;;16.20;;
22851;SDS011;11592;45.460;9.240;2022-12-07T07:39:00;26.02;;;15.02;;
22851;SDS011;11592;45.460;9.240;2022-12-07T07:41:27;27.33;;;15.10;;
22851;SDS011;11592;45.460;9.240;2022-12-07T07:43:54;30.50;;;15.90;;
22851;SDS011;11592;45.460;9.240;2022-12-07T07:46:21;30.27;;;16.88;;
22851;SDS011;11592;45.460;9.240;2022-12-07T07:48:48;34.75;;;17.10;;
22851;SDS011;11592;45.460;9.240;2022-12-07T07:51:14;25.92;;;15.85;;
22851;SDS011;11592;45.460;9.240;2022-12-07T07:53:41;32.30;;;18.13;;
22851;SDS011;11592;45.460;9.240;2022-12-07T07:56:08;33.72;;;16.90;;
22851;SDS011;11592;45.460;9.240;2022-12-07T07:58:35;29.83;;;17.42;;
22851;SDS011;11592;45.460;9.240;2022-12-07T08:01:05;37.28;;;17.45;;
22851;SDS011;11592;45.460;9.240;2022-12-07T08:03:33;34.33;;;17.88;;
22851;SDS011;11592;45.460;9.240;2022-12-07T08:06:01;36.38;;;19.30;;
22851;SDS011;11592;45.460;9.240;2022-12-07T08:08:29;34.13;;;18.83;;
22851;SDS011;11592;45.460;9.240;2022-12-07T08:10:56;34.53;;;18.90;;
22851;SDS011;11592;45.460;9.240;2022-12-07T08:13:22;33.13;;;17.40;;
22851;SDS011;11592;45.460;9.240;2022-12-07T08:15:56;46.03;;;17.73;;
22851;SDS011;11592;45.460;9.240;2022-12-07T08:18:23;33.78;;;18.77;;
22851;SDS011;11592;45.460;9.240;2022-12-07T08:20:50;38.50;;;19.20;;
22851;SDS011;11592;45.460;9.240;2022-12-07T08:23:17;34.42;;;18.75;;
22851;SDS011;11592;45.460;9.240;2022-12-07T08:25:43;33.22;;;17.60;;
22851;SDS011;11592;45.460;9.240;2022-12-07T08:28:10;32.55;;;18.65;;
22851;SDS011;11592;45.460;9.240;2022-12-07T08:30:37;33.28;;;17.70;;
22851;SDS011;11592;45.460;9.240;2022-12-07T08:33:04;36.53;;;18.75;;
22851;SDS011;11592;45.460;9.240;2022-12-07T08:35:32;31.52;;;18.52;;
22851;SDS011;11592;45.460;9.240;2022-12-07T08:38:00;35.90;;;18.08;;
22851;SDS011;11592;45.460;9.240;2022-12-07T08:40:28;31.58;;;17.73;;
22851;SDS011;11592;45.460;9.240;2022-12-07T08:42:56;29.48;;;16.95;;
22851;SDS011;11592;45.460;9.240;2022-12-07T08:45:23;27.70;;;16.55;;
22851;SDS011;11592;45.460;9.240;2022-12-07T08:47:57;31.25;;;17.50;;
22851;SDS011;11592;45.460;9.240;2022-12-07T08:50:30;29.45;;;17.48;;
22851;SDS011;11592;45.460;9.240;2022-12-07T08:52:59;30.00;;;17.85;;
22851;SDS011;11592;45.460;9.240;2022-12-07T08:55:27;29.70;;;16.85;;
22851;SDS011;11592;45.460;9.240;2022-12-07T08:57:57;29.92;;;17.38;;
22851;SDS011;11592;45.460;9.240;2022-12-07T09:00:25;31.98;;;18.48;;
22851;SDS011;11592;45.460;9.240;2022-12-07T09:02:53;30.20;;;17.60;;
22851;SDS011;11592;45.460;9.240;2022-12-07T09:05:20;30.77;;;17.92;;
22851;SDS011;11592;45.460;9.240;2022-12-07T09:07:48;32.30;;;18.00;;
22851;SDS011;11592;45.460;9.240;2022-12-07T09:10:20;36.72;;;18.60;;
22851;SDS011;11592;45.460;9.240;2022-12-07T09:12:47;35.53;;;18.30;;
22851;SDS011;11592;45.460;9.240;2022-12-07T09:15:14;34.03;;;17.95;;
22851;SDS011;11592;45.460;9.240;2022-12-07T09:17:41;32.00;;;18.95;;
22851;SDS011;11592;45.460;9.240;2022-12-07T09:20:08;30.00;;;17.58;;
22851;SDS011;11592;45.460;9.240;2022-12-07T09:22:35;34.08;;;18.98;;
22851;SDS011;11592;45.460;9.240;2022-12-07T09:25:02;37.95;;;19.20;;
22851;SDS011;11592;45.460;9.240;2022-12-07T09:27:30;34.90;;;18.38;;
22851;SDS011;11592;45.460;9.240;2022-12-07T09:29:57;35.95;;;20.05;;
22851;SDS011;11592;45.460;9.240;2022-12-07T09:32:23;33.50;;;18.38;;
22851;SDS011;11592;45.460;9.240;2022-12-07T09:34:50;34.78;;;19.08;;
22851;SDS011;11592;45.460;9.240;2022-12-07T09:37:17;37.70;;;19.65;;
22851;SDS011;11592;45.460;9.240;2022-12-07T09:39:44;37.92;;;20.52;;
22851;SDS011;11592;45.460;9.240;2022-12-07T09:44:54;35.80;;;19.83;;
22851;SDS011;11592;45.460;9.240;2022-12-07T09:47:22;35.25;;;19.73;;
22851;SDS011;11592;45.460;9.240;2022-12-07T09:49:49;40.05;;;19.92;;
22851;SDS011;11592;45.460;9.240;2022-12-07T09:52:17;39.85;;;21.25;;
22851;SDS011;11592;45.460;9.240;2022-12-07T09:54:51;36.78;;;19.33;;
22851;SDS011;11592;45.460;9.240;2022-12-07T09:57:19;38.08;;;21.10;;
22851;SDS011;11592;45.460;9.240;2022-12-07T09:59:55;38.83;;;20.58;;
22851;SDS011;11592;45.460;9.240;2022-12-07T10:02:36;35.97;;;20.15;;
22851;SDS011;11592;45.460;9.240;2022-12-07T10:05:06;47.17;;;21.92;;
22851;SDS011;11592;45.460;9.240;2022-12-07T10:07:34;37.85;;;21.13;;
22851;SDS011;11592;45.460;9.240;2022-12-07T10:10:02;37.95;;;21.00;;
22851;SDS011;11592;45.460;9.240;2022-12-07T10:12:30;42.88;;;21.17;;
22851;SDS011;11592;45.460;9.240;2022-12-07T10:15:22;41.13;;;22.77;;
22851;SDS011;11592;45.460;9.240;2022-12-07T10:17:50;43.05;;;23.40;;
22851;SDS011;11592;45.460;9.240;2022-12-07T10:20:24;42.63;;;22.13;;
22851;SDS011;11592;45.460;9.240;2022-12-07T10:25:29;46.78;;;24.60;;
22851;SDS011;11592;45.460;9.240;2022-12-07T10:28:03;55.38;;;26.52;;
22851;SDS011;11592;45.460;9.240;2022-12-07T10:30:46;50.10;;;26.23;;
22851;SDS011;11592;45.460;9.240;2022-12-07T10:33:37;51.88;;;27.02;;
22851;SDS011;11592;45.460;9.240;2022-12-07T10:36:17;63.97;;;27.95;;
22851;SDS011;11592;45.460;9.240;2022-12-07T10:38:49;60.17;;;28.23;;
22851;SDS011;11592;45.460;9.240;2022-12-07T10:41:18;65.63;;;29.45;;
22851;SDS011;11592;45.460;9.240;2022-12-07T10:43:47;70.35;;;29.30;;
22851;SDS011;11592;45.460;9.240;2022-12-07T10:46:36;60.00;;;28.60;;
22851;SDS011;11592;45.460;9.240;2022-12-07T10:49:15;57.05;;;26.45;;
22851;SDS011;11592;45.460;9.240;2022-12-07T11:00:29;50.40;;;25.40;;
22851;SDS011;11592;45.460;9.240;2022-12-07T11:03:19;47.05;;;24.48;;
22851;SDS011;11592;45.460;9.240;2022-12-07T11:18:06;44.17;;;23.58;;
22851;SDS011;11592;45.460;9.240;2022-12-07T11:36:59;33.45;;;20.73;;
22851;SDS011;11592;45.460;9.240;2022-12-07T11:39:35;32.40;;;19.52;;
22851;SDS011;11592;45.460;9.240;2022-12-07T11:47:30;29.20;;;18.30;;
22851;SDS011;11592;45.460;9.240;2022-12-07T11:52:48;34.13;;;21.30;;
22851;SDS011;11592;45.460;9.240;2022-12-07T12:06:19;37.15;;;22.02;;
22851;SDS011;11592;45.460;9.240;2022-12-07T12:22:33;38.55;;;22.52;;
22851;SDS011;11592;45.460;9.240;2022-12-07T12:25:02;38.33;;;21.55;;
22851;SDS011;11592;45.460;9.240;2022-12-07T12:27:36;39.15;;;20.92;;
22851;SDS011;11592;45.460;9.240;2022-12-07T12:30:05;35.47;;;21.65;;
22851;SDS011;11592;45.460;9.240;2022-12-07T12:32:49;41.60;;;21.40;;
22851;SDS011;11592;45.460;9.240;2022-12-07T12:37:47;40.30;;;22.85;;
22851;SDS011;11592;45.460;9.240;2022-12-07T12:48:02;31.80;;;20.00;;
22851;SDS011;11592;45.460;9.240;2022-12-07T12:50:36;30.63;;;19.63;;
22851;SDS011;11592;45.460;9.240;2022-12-07T12:53:19;31.17;;;20.92;;
22851;SDS011;11592;45.460;9.240;2022-12-07T13:00:46;34.00;;;21.50;;
22851;SDS011;11592;45.460;9.240;2022-12-07T13:03:34;31.83;;;20.52;;
22851;SDS011;11592;45.460;9.240;2022-12-07T13:06:17;31.30;;;21.05;;
22851;SDS011;11592;45.460;9.240;2022-12-07T13:08:50;34.13;;;22.05;;
22851;SDS011;11592;45.460;9.240;2022-12-07T13:11:20;31.58;;;20.48;;
22851;SDS011;11592;45.460;9.240;2022-12-07T13:13:51;34.38;;;22.02;;
22851;SDS011;11592;45.460;9.240;2022-12-07T13:18:48;29.83;;;20.48;;
22851;SDS011;11592;45.460;9.240;2022-12-07T13:28:50;33.42;;;21.60;;
22851;SDS011;11592;45.460;9.240;2022-12-07T13:31:46;35.58;;;21.08;;
22851;SDS011;11592;45.460;9.240;2022-12-07T13:37:02;28.92;;;19.60;;
22851;SDS011;11592;45.460;9.240;2022-12-07T13:39:49;31.92;;;20.85;;
22851;SDS011;11592;45.460;9.240;2022-12-07T13:42:33;31.52;;;21.25;;
22851;SDS011;11592;45.460;9.240;2022-12-07T13:45:17;30.58;;;19.63;;
22851;SDS011;11592;45.460;9.240;2022-12-07T13:48:20;30.10;;;19.98;;
22851;SDS011;11592;45.460;9.240;2022-12-07T13:50:57;31.38;;;20.50;;
22851;SDS011;11592;45.460;9.240;2022-12-07T13:53:25;32.90;;;20.98;;
22851;SDS011;11592;45.460;9.240;2022-12-07T13:55:56;33.97;;;20.50;;
22851;SDS011;11592;45.460;9.240;2022-12-07T13:58:26;36.03;;;21.40;;
22851;SDS011;11592;45.460;9.240;2022-12-07T14:00:56;37.13;;;23.23;;
22851;SDS011;11592;45.460;9.240;2022-12-07T14:03:34;41.40;;;23.08;;
22851;SDS011;11592;45.460;9.240;2022-12-07T14:06:07;43.28;;;24.20;;
22851;SDS011;11592;45.460;9.240;2022-12-07T14:08:42;37.80;;;23.65;;
22851;SDS011;11592;45.460;9.240;2022-12-07T14:11:12;38.40;;;23.55;;
22851;SDS011;11592;45.460;9.240;2022-12-07T14:13:58;42.90;;;23.33;;
22851;SDS011;11592;45.460;9.240;2022-12-07T14:16:31;40.13;;;23.20;;
22851;SDS011;11592;45.460;9.240;2022-12-07T14:19:02;40.35;;;24.05;;
22851;SDS011;11592;45.460;9.240;2022-12-07T14:21:31;44.80;;;25.92;;
22851;SDS011;11592;45.460;9.240;2022-12-07T14:24:19;44.47;;;25.58;;
22851;SDS011;11592;45.460;9.240;2022-12-07T14:26:49;46.08;;;25.88;;
22851;SDS011;11592;45.460;9.240;2022-12-07T14:31:54;50.67;;;27.30;;
22851;SDS011;11592;45.460;9.240;2022-12-07T14:34:22;45.67;;;25.67;;
22851;SDS011;11592;45.460;9.240;2022-12-07T14:36:50;49.40;;;25.33;;
22851;SDS011;11592;45.460;9.240;2022-12-07T14:39:17;45.58;;;24.48;;
22851;SDS011;11592;45.460;9.240;2022-12-07T14:41:43;43.17;;;25.27;;
22851;SDS011;11592;45.460;9.240;2022-12-07T14:44:16;46.60;;;25.00;;
22851;SDS011;11592;45.460;9.240;2022-12-07T14:46:52;47.38;;;25.38;;
22851;SDS011;11592;45.460;9.240;2022-12-07T14:49:40;41.10;;;23.67;;
22851;SDS011;11592;45.460;9.240;2022-12-07T14:52:10;42.13;;;23.33;;
22851;SDS011;11592;45.460;9.240;2022-12-07T14:55:13;37.60;;;22.60;;
22851;SDS011;11592;45.460;9.240;2022-12-07T14:57:52;38.53;;;22.17;;
22851;SDS011;11592;45.460;9.240;2022-12-07T15:00:19;40.03;;;21.42;;
22851;SDS011;11592;45.460;9.240;2022-12-07T15:02:48;40.10;;;21.80;;
22851;SDS011;11592;45.460;9.240;2022-12-07T15:05:15;39.47;;;22.15;;
22851;SDS011;11592;45.460;9.240;2022-12-07T15:07:44;40.17;;;22.13;;
22851;SDS011;11592;45.460;9.240;2022-12-07T15:10:24;41.28;;;21.77;;
22851;SDS011;11592;45.460;9.240;2022-12-07T15:13:01;38.22;;;21.75;;
22851;SDS011;11592;45.460;9.240;2022-12-07T15:15:48;48.05;;;22.25;;
22851;SDS011;11592;45.460;9.240;2022-12-07T15:18:16;43.00;;;21.98;;
22851;SDS011;11592;45.460;9.240;2022-12-07T15:20:44;38.90;;;23.17;;
22851;SDS011;11592;45.460;9.240;2022-12-07T15:23:11;39.33;;;21.98;;
22851;SDS011;11592;45.460;9.240;2022-12-07T15:25:43;41.20;;;22.38;;
22851;SDS011;11592;45.460;9.240;2022-12-07T15:28:11;39.67;;;22.92;;
22851;SDS011;11592;45.460;9.240;2022-12-07T15:30:38;34.78;;;22.02;;
22851;SDS011;11592;45.460;9.240;2022-12-07T15:33:07;38.25;;;21.08;;
22851;SDS011;11592;45.460;9.240;2022-12-07T15:35:33;34.67;;;20.50;;
22851;SDS011;11592;45.460;9.240;2022-12-07T15:38:08;41.60;;;22.27;;
22851;SDS011;11592;45.460;9.240;2022-12-07T15:40:35;38.35;;;23.02;;
22851;SDS011;11592;45.460;9.240;2022-12-07T15:43:02;41.22;;;23.65;;
22851;SDS011;11592;45.460;9.240;2022-12-07T15:45:30;40.03;;;23.02;;
22851;SDS011;11592;45.460;9.240;2022-12-07T15:47:57;42.97;;;22.60;;
22851;SDS011;11592;45.460;9.240;2022-12-07T15:50:44;36.47;;;21.23;;
22851;SDS011;11592;45.460;9.240;2022-12-07T15:53:10;40.88;;;22.42;;
22851;SDS011;11592;45.460;9.240;2022-12-07T15:55:40;39.75;;;23.75;;
22851;SDS011;11592;45.460;9.240;2022-12-07T15:58:07;39.75;;;24.10;;
22851;SDS011;11592;45.460;9.240;2022-12-07T16:00:34;40.50;;;23.48;;
22851;SDS011;11592;45.460;9.240;2022-12-07T16:03:01;40.53;;;22.38;;
22851;SDS011;11592;45.460;9.240;2022-12-07T16:05:28;40.63;;;22.45;;
22851;SDS011;11592;45.460;9.240;2022-12-07T16:07:54;42.45;;;23.90;;
22851;SDS011;11592;45.460;9.240;2022-12-07T16:10:21;42.22;;;23.52;;
22851;SDS011;11592;45.460;9.240;2022-12-07T16:12:48;41.08;;;22.40;;
22851;SDS011;11592;45.460;9.240;2022-12-07T16:15:15;41.75;;;23.13;;
22851;SDS011;11592;45.460;9.240;2022-12-07T16:17:49;41.08;;;23.23;;
22851;SDS011;11592;45.460;9.240;2022-12-07T16:20:16;41.47;;;23.33;;
22851;SDS011;11592;45.460;9.240;2022-12-07T16:22:43;36.95;;;22.38;;
22851;SDS011;11592;45.460;9.240;2022-12-07T16:25:10;43.13;;;24.30;;
22851;SDS011;11592;45.460;9.240;2022-12-07T16:27:37;41.25;;;24.20;;
22851;SDS011;11592;45.460;9.240;2022-12-07T16:30:03;39.05;;;23.50;;
22851;SDS011;11592;45.460;9.240;2022-12-07T16:32:31;44.15;;;25.02;;
22851;SDS011;11592;45.460;9.240;2022-12-07T16:34:58;49.38;;;27.88;;
22851;SDS011;11592;45.460;9.240;2022-12-07T16:37:25;50.22;;;27.52;;
22851;SDS011;11592;45.460;9.240;2022-12-07T16:39:51;49.92;;;28.00;;
22851;SDS011;11592;45.460;9.240;2022-12-07T16:42:18;51.38;;;29.10;;
22851;SDS011;11592;45.460;9.240;2022-12-07T16:44:45;54.15;;;29.73;;
22851;SDS011;11592;45.460;9.240;2022-12-07T16:47:11;53.67;;;28.98;;
22851;SDS011;11592;45.460;9.240;2022-12-07T16:49:38;55.40;;;30.02;;
22851;SDS011;11592;45.460;9.240;2022-12-07T16:52:05;56.63;;;31.38;;
22851;SDS011;11592;45.460;9.240;2022-12-07T16:54:46;56.97;;;30.85;;
22851;SDS011;11592;45.460;9.240;2022-12-07T16:57:14;56.47;;;30.45;;